createdAt,value
2023-02-15T00:09:47.951Z,77258.53
2023-02-15T00:19:51.411Z,77260.56
2023-02-15T00:29:53.508Z,77258.53
2023-02-15T00:39:55.557Z,77248.41
2023-02-15T00:49:57.668Z,77240.31
2023-02-15T00:59:59.866Z,77226.16
2023-02-15T01:10:02.041Z,77232.22
2023-02-15T01:20:05.563Z,77214.00
2023-02-15T01:30:08.467Z,77214.00
2023-02-15T01:40:15.229Z,77195.78
2023-02-15T01:50:41.693Z,77209.94
2023-02-15T02:00:48.852Z,77197.81
2023-02-15T02:10:50.876Z,77183.63
2023-02-15T02:21:22.618Z,77191.72
2023-02-15T02:31:51.896Z,77171.50
2023-02-15T02:42:09.695Z,77179.59
2023-02-15T02:52:36.071Z,77183.63
2023-02-15T03:02:46.187Z,77159.34
2023-02-15T03:12:49.033Z,77165.41
2023-02-15T03:22:59.684Z,77175.53
2023-02-15T03:33:03.988Z,77171.50
2023-02-15T03:43:13.650Z,77175.53
2023-02-15T03:53:21.052Z,77171.50
2023-02-15T04:03:36.438Z,77173.50
2023-02-15T04:13:39.069Z,77165.41
2023-02-15T04:24:00.045Z,77155.28
2023-02-15T04:34:02.180Z,77167.44
2023-02-15T04:44:06.456Z,77175.53
2023-02-15T04:54:10.794Z,77179.59
2023-02-15T05:04:12.872Z,77201.84
2023-02-15T05:14:17.428Z,77199.84
2023-02-15T05:24:40.225Z,77214.00
2023-02-15T05:34:44.694Z,77220.06
2023-02-15T05:44:54.544Z,77226.16
2023-02-15T05:55:03.830Z,77234.25
2023-02-15T06:05:09.109Z,77252.47
2023-02-15T06:15:11.383Z,77248.41
2023-02-15T06:25:17.827Z,77260.56
2023-02-15T06:35:19.845Z,77254.50
2023-02-15T06:45:23.025Z,77282.84
2023-02-15T06:55:27.757Z,77270.69
2023-02-15T07:05:32.600Z,77268.66
2023-02-15T07:15:37.244Z,77254.50
2023-02-15T07:25:43.849Z,77234.25
2023-02-15T07:35:50.136Z,77224.13
2023-02-15T07:45:55.388Z,77270.69
2023-02-15T07:56:18.139Z,77254.50
2023-02-15T08:06:21.334Z,77256.53
2023-02-15T08:16:27.812Z,77224.13
2023-02-15T08:26:32.468Z,77224.13
2023-02-15T08:36:39.454Z,77232.22
2023-02-15T08:46:43.237Z,77240.31
2023-02-15T08:56:47.464Z,77216.03
2023-02-15T09:06:52.879Z,77222.09
2023-02-15T09:16:59.716Z,77244.38
2023-02-15T09:27:06.808Z,77244.38
2023-02-15T09:37:09.001Z,77272.72
2023-02-15T09:47:49.498Z,77274.75
2023-02-15T09:58:32.896Z,77256.53
2023-02-15T10:08:53.281Z,77286.88
2023-02-15T10:19:08.457Z,77276.75
2023-02-15T10:29:41.487Z,77224.13
2023-02-15T10:40:06.086Z,77226.16
2023-02-15T10:50:46.277Z,77252.47
2023-02-15T11:00:52.108Z,77216.03
2023-02-15T11:11:04.110Z,77224.13
2023-02-15T11:21:19.285Z,77155.28
2023-02-15T11:31:33.947Z,77139.09
2023-02-15T11:41:40.129Z,77118.84
2023-02-15T11:51:51.817Z,77133.03
2023-02-15T12:01:58.458Z,77092.53
2023-02-15T12:12:31.097Z,77155.28
2023-02-15T12:22:38.223Z,77122.91
2023-02-15T12:33:18.533Z,77092.53
2023-02-15T12:43:44.099Z,77078.34
2023-02-15T12:53:47.914Z,77082.41
2023-02-15T13:04:17.416Z,77108.72
2023-02-15T13:14:37.514Z,77066.22
2023-02-15T13:24:49.733Z,77072.28
2023-02-15T13:35:06.670Z,77102.66
2023-02-15T13:45:24.550Z,77086.47
2023-02-15T13:55:50.548Z,77072.28
2023-02-15T14:06:13.739Z,77058.13
2023-02-15T14:16:37.265Z,77056.09
2023-02-15T14:26:43.017Z,77007.50
2023-02-15T14:36:45.257Z,77007.50
2023-02-15T14:46:52.397Z,77017.63
2023-02-15T14:57:03.435Z,76995.34
2023-02-15T15:07:23.745Z,76997.38
2023-02-15T15:17:35.206Z,77009.53
2023-02-15T15:27:54.492Z,77050.03
2023-02-15T15:38:44.514Z,77045.97
2023-02-15T15:48:46.543Z,77068.25
2023-02-15T15:58:54.449Z,77084.44
2023-02-15T16:08:58.517Z,77058.13
2023-02-15T16:19:04.285Z,77023.69
2023-02-15T16:29:25.087Z,77037.88
2023-02-15T16:39:29.311Z,77023.69
2023-02-15T16:49:35.982Z,77015.59
2023-02-15T16:59:50.640Z,77009.53
2023-02-15T17:09:59.901Z,77050.03
2023-02-15T17:20:06.743Z,77011.56
2023-02-15T17:30:18.503Z,77013.56
2023-02-15T17:40:40.562Z,77074.31
2023-02-15T17:50:44.241Z,77054.06
2023-02-15T18:01:19.674Z,77025.72
2023-02-15T18:11:34.350Z,77054.06
2023-02-15T18:21:41.326Z,77048.00
2023-02-15T18:31:51.241Z,77031.81
2023-02-15T18:42:02.104Z,76997.38
2023-02-15T18:52:05.739Z,77029.78
2023-02-15T19:02:14.853Z,77021.69
2023-02-15T19:12:20.869Z,76981.19
2023-02-15T19:22:28.471Z,76973.09
2023-02-15T19:32:34.623Z,76956.91
2023-02-15T19:42:36.725Z,76940.69
2023-02-15T19:52:47.048Z,76952.84
2023-02-15T20:02:49.938Z,76975.13
2023-02-15T20:12:55.633Z,76969.03
2023-02-15T20:23:00.622Z,76985.25
2023-02-15T20:33:06.143Z,76985.25
2023-02-15T20:43:12.352Z,76983.22
2023-02-15T20:53:21.203Z,76973.09
2023-02-15T21:03:31.814Z,76971.06
2023-02-15T21:13:37.684Z,76981.19
2023-02-15T21:23:42.796Z,76983.22
2023-02-15T21:33:49.202Z,76989.28
2023-02-15T21:44:11.688Z,76918.44
2023-02-15T21:54:14.992Z,76948.78
2023-02-15T22:04:30.016Z,76960.94
2023-02-15T22:14:38.265Z,76952.84
2023-02-15T22:24:40.829Z,76952.84
2023-02-15T22:34:45.281Z,76946.78
2023-02-15T22:44:49.773Z,76950.81
2023-02-15T22:54:57.892Z,76956.91
2023-02-15T23:05:01.594Z,76956.91
2023-02-15T23:15:11.057Z,76944.75
2023-02-15T23:25:17.730Z,76916.41
2023-02-15T23:35:23.493Z,76877.94
2023-02-15T23:45:31.562Z,76857.69
2023-02-15T23:55:41.018Z,76855.66
